createdAt,value
2024-01-11T00:02:14.603Z,1.00
2024-01-11T00:04:45.072Z,20.50
2024-01-11T00:07:15.474Z,99.90
2024-01-11T00:09:45.035Z,1.00
2024-01-11T00:12:13.752Z,12.30
2024-01-11T00:14:42.836Z,99.90
2024-01-11T00:17:11.247Z,2.40
2024-01-11T00:19:39.583Z,5.50
2024-01-11T00:22:08.527Z,1.00
2024-01-11T00:24:39.765Z,1.00
2024-01-11T00:27:08.593Z,1.00
2024-01-11T00:29:38.084Z,1.00
2024-01-11T00:32:07.285Z,1.00
2024-01-11T00:34:37.238Z,99.90
2024-01-11T00:37:05.839Z,99.90
2024-01-11T00:39:34.373Z,1.00
2024-01-11T00:42:04.764Z,99.90
2024-01-11T00:44:34.298Z,99.90
2024-01-11T00:47:02.915Z,99.90
2024-01-11T00:49:31.743Z,1.00
2024-01-11T00:52:00.331Z,1.00
2024-01-11T00:54:29.393Z,1.00
2024-01-11T00:56:57.902Z,99.90
2024-01-11T00:59:27.927Z,1.00
2024-01-11T01:01:56.403Z,1.00
2024-01-11T01:04:24.870Z,1.00
2024-01-11T01:06:53.405Z,28.00
2024-01-11T01:09:22.110Z,98.80
2024-01-11T01:11:50.926Z,99.90
2024-01-11T01:14:19.422Z,99.90
2024-01-11T01:16:50.119Z,99.90
2024-01-11T01:19:18.479Z,99.90
2024-01-11T01:21:47.171Z,99.90
2024-01-11T01:24:15.538Z,1.00
2024-01-11T01:26:44.004Z,1.00
2024-01-11T01:29:13.061Z,1.00
2024-01-11T01:31:41.768Z,1.00
2024-01-11T01:34:11.744Z,1.00
2024-01-11T01:36:40.298Z,1.00
2024-01-11T01:39:09.002Z,1.00
2024-01-11T01:41:38.156Z,1.00
2024-01-11T01:44:09.420Z,1.00
2024-01-11T01:46:38.058Z,1.00
2024-01-11T01:49:07.254Z,1.00
2024-01-11T01:51:37.746Z,1.00
2024-01-11T01:54:06.647Z,1.00
2024-01-11T01:56:35.828Z,1.00
2024-01-11T01:59:05.557Z,15.10
2024-01-11T02:01:34.784Z,23.50
2024-01-11T02:04:03.469Z,22.20
2024-01-11T02:06:35.489Z,18.60
2024-01-11T02:09:05.983Z,17.50
2024-01-11T02:11:34.982Z,21.50
2024-01-11T02:14:04.035Z,20.80
2024-01-11T02:16:32.637Z,12.30
2024-01-11T02:19:01.188Z,1.00
2024-01-11T02:21:31.228Z,1.00
2024-01-11T02:24:06.044Z,1.00
2024-01-11T02:26:34.972Z,1.00
2024-01-11T02:29:04.132Z,1.00
2024-01-11T02:31:33.292Z,1.00
2024-01-11T02:34:01.834Z,1.00
2024-01-11T02:36:30.260Z,1.00
2024-01-11T02:38:58.681Z,1.00
2024-01-11T02:41:29.433Z,1.00
2024-01-11T02:43:58.510Z,1.00
2024-01-11T02:46:27.096Z,1.00
2024-01-11T02:48:55.417Z,1.00
2024-01-11T02:51:24.145Z,1.00
2024-01-11T02:53:52.454Z,1.00
2024-01-11T02:56:21.002Z,1.00
2024-01-11T02:58:50.936Z,1.00
2024-01-11T03:01:19.561Z,1.00
2024-01-11T03:03:50.728Z,1.00
2024-01-11T03:06:23.286Z,1.00
2024-01-11T03:08:51.838Z,1.00
2024-01-11T03:11:20.336Z,1.00
2024-01-11T03:13:51.709Z,1.00
2024-01-11T03:16:20.089Z,1.00
2024-01-11T03:18:48.794Z,1.00
2024-01-11T03:21:17.731Z,1.00
2024-01-11T03:23:46.228Z,1.00
2024-01-11T03:26:15.779Z,1.00
2024-01-11T03:28:44.550Z,1.00
2024-01-11T03:31:14.658Z,1.00
2024-01-11T03:33:43.471Z,1.00
2024-01-11T03:36:13.098Z,1.00
2024-01-11T03:38:41.671Z,1.00
2024-01-11T03:41:11.072Z,1.00
2024-01-11T03:43:39.744Z,1.00
2024-01-11T03:46:08.360Z,1.00
2024-01-11T03:48:39.016Z,1.00
2024-01-11T03:51:08.010Z,1.00
2024-01-11T03:53:39.191Z,1.00
2024-01-11T03:56:08.161Z,1.00
2024-01-11T03:58:40.340Z,1.00
2024-01-11T04:01:11.594Z,1.00
2024-01-11T04:03:43.645Z,1.00
2024-01-11T04:06:22.244Z,1.00
2024-01-11T04:08:51.205Z,1.00
2024-01-11T04:11:21.596Z,1.00
2024-01-11T04:13:50.392Z,1.00
2024-01-11T04:16:18.788Z,1.00
2024-01-11T04:18:48.756Z,1.00
2024-01-11T04:21:24.826Z,1.00
2024-01-11T04:23:53.284Z,1.00
2024-01-11T04:26:22.173Z,1.00
2024-01-11T04:28:51.525Z,1.00
2024-01-11T04:31:20.218Z,1.00
2024-01-11T04:33:50.226Z,1.00
2024-01-11T04:36:18.648Z,1.00
2024-01-11T04:38:47.114Z,1.00
2024-01-11T04:41:17.544Z,1.00
2024-01-11T04:43:46.943Z,1.00
2024-01-11T04:46:17.105Z,1.00
2024-01-11T04:48:46.089Z,1.00
2024-01-11T04:51:16.898Z,1.00
2024-01-11T04:53:46.421Z,1.00
2024-01-11T04:56:17.531Z,1.00
2024-01-11T04:58:47.241Z,1.00
2024-01-11T05:01:17.130Z,1.00
2024-01-11T05:03:45.979Z,1.00
2024-01-11T05:06:19.983Z,1.00
2024-01-11T05:08:50.061Z,1.00
2024-01-11T05:11:19.652Z,1.00
2024-01-11T05:13:49.431Z,1.00
2024-01-11T05:16:22.573Z,1.00
2024-01-11T05:18:51.492Z,1.00
2024-01-11T05:21:22.395Z,1.00
2024-01-11T05:23:51.228Z,1.00
2024-01-11T05:26:20.885Z,1.00
2024-01-11T05:28:49.770Z,1.00
2024-01-11T05:31:19.137Z,1.00
2024-01-11T05:33:49.093Z,1.00
2024-01-11T05:36:17.834Z,1.00
2024-01-11T05:38:48.555Z,1.00
2024-01-11T05:41:17.281Z,1.00
2024-01-11T05:43:46.020Z,1.00
2024-01-11T05:46:14.872Z,1.00
2024-01-11T05:48:43.777Z,1.00
2024-01-11T05:51:12.584Z,1.00
2024-01-11T05:53:41.113Z,1.00
2024-01-11T05:56:12.345Z,1.00
2024-01-11T05:58:42.919Z,1.00
2024-01-11T06:01:12.130Z,1.00
2024-01-11T06:03:40.746Z,1.00
2024-01-11T06:06:10.181Z,1.00
2024-01-11T06:08:40.023Z,1.00
2024-01-11T06:11:09.376Z,1.00
2024-01-11T06:13:39.623Z,6.80
2024-01-11T06:16:11.291Z,17.80
2024-01-11T06:18:42.411Z,26.10
2024-01-11T06:21:11.270Z,31.70
2024-01-11T06:23:41.088Z,35.00
2024-01-11T06:26:12.317Z,35.00
2024-01-11T06:28:43.807Z,38.70
2024-01-11T06:31:13.901Z,46.80
2024-01-11T06:33:47.183Z,55.70
2024-01-11T06:36:17.639Z,70.10
2024-01-11T06:38:48.319Z,80.10
2024-01-11T06:41:17.627Z,90.60
2024-01-11T06:43:48.807Z,95.50
2024-01-11T06:46:23.911Z,99.90
2024-01-11T06:48:53.456Z,99.90
2024-01-11T06:51:23.708Z,99.90
2024-01-11T06:53:52.335Z,99.90
2024-01-11T06:56:22.227Z,99.90
2024-01-11T06:58:52.633Z,99.90
2024-01-11T07:01:22.706Z,99.90
2024-01-11T07:03:51.489Z,99.90
2024-01-11T07:06:20.346Z,99.90
2024-01-11T07:08:49.025Z,99.90
2024-01-11T07:11:17.475Z,99.90
2024-01-11T07:13:45.881Z,99.90
2024-01-11T07:16:16.607Z,99.90
2024-01-11T07:18:45.500Z,99.90
2024-01-11T07:21:14.188Z,99.90
2024-01-11T07:26:11.247Z,99.90
2024-01-11T07:28:40.601Z,99.90
2024-01-11T07:31:09.138Z,99.90
2024-01-11T07:33:39.640Z,99.90
2024-01-11T07:36:09.081Z,99.90
2024-01-11T07:38:38.073Z,99.90
2024-01-11T07:41:06.625Z,99.90
2024-01-11T07:43:45.568Z,99.90
2024-01-11T07:46:29.370Z,99.90
2024-01-11T07:49:06.531Z,99.90
2024-01-11T07:51:36.326Z,99.90
2024-01-11T07:54:06.088Z,99.90
2024-01-11T07:56:34.705Z,99.90
2024-01-11T07:59:03.139Z,99.90
2024-01-11T08:01:31.717Z,99.90
2024-01-11T08:04:02.965Z,99.90
2024-01-11T08:06:33.447Z,99.90
2024-01-11T08:09:01.874Z,99.90
2024-01-11T08:11:31.419Z,99.90
2024-01-11T08:14:00.641Z,99.90
2024-01-11T08:16:29.134Z,99.90
2024-01-11T08:18:58.012Z,99.90
2024-01-11T08:21:29.985Z,99.90
2024-01-11T08:24:03.433Z,99.90
2024-01-11T08:26:32.591Z,99.90
2024-01-11T08:29:01.044Z,99.90
2024-01-11T08:31:29.639Z,99.90
2024-01-11T08:33:59.500Z,99.90
2024-01-11T08:36:33.967Z,99.90
2024-01-11T08:39:06.879Z,99.90
2024-01-11T08:41:36.198Z,99.90
2024-01-11T08:44:07.106Z,99.90
2024-01-11T08:46:39.294Z,99.90
2024-01-11T08:49:08.306Z,99.90
2024-01-11T08:51:37.064Z,99.90
2024-01-11T08:54:10.263Z,99.90
2024-01-11T08:56:40.713Z,99.90
2024-01-11T08:59:09.952Z,99.90
2024-01-11T09:01:39.838Z,99.90
2024-01-11T09:04:11.057Z,99.90
2024-01-11T09:06:39.825Z,99.90
2024-01-11T09:09:11.330Z,99.90
2024-01-11T09:11:39.757Z,99.90
2024-01-11T09:14:08.926Z,99.90
2024-01-11T09:16:37.806Z,99.90
2024-01-11T09:19:08.699Z,99.90
2024-01-11T09:21:37.952Z,99.90
2024-01-11T09:24:06.677Z,99.90
2024-01-11T09:26:37.431Z,99.90
2024-01-11T09:29:06.468Z,99.90
2024-01-11T09:31:35.445Z,99.90
2024-01-11T09:34:04.219Z,99.90
2024-01-11T09:36:32.757Z,99.90
2024-01-11T09:39:01.888Z,99.90
2024-01-11T09:41:32.657Z,99.90
2024-01-11T09:44:05.780Z,99.90
2024-01-11T09:46:34.578Z,99.90
2024-01-11T09:49:05.556Z,99.90
2024-01-11T09:51:36.643Z,99.90
2024-01-11T09:54:05.880Z,99.90
2024-01-11T09:56:36.947Z,99.90
2024-01-11T09:59:11.963Z,99.90
2024-01-11T10:01:41.189Z,99.90
2024-01-11T10:04:11.310Z,99.90
2024-01-11T10:06:41.306Z,99.90
2024-01-11T10:09:10.323Z,99.90
2024-01-11T10:11:40.220Z,99.90
2024-01-11T10:14:10.524Z,99.90
2024-01-11T10:16:39.556Z,99.90
2024-01-11T10:19:09.070Z,96.60
2024-01-11T10:21:40.406Z,24.50
2024-01-11T10:24:09.069Z,1.00
2024-01-11T10:26:38.755Z,1.00
2024-01-11T10:29:13.826Z,1.00
2024-01-11T10:31:43.140Z,99.90
2024-01-11T10:34:11.815Z,99.90
2024-01-11T10:36:42.173Z,1.00
2024-01-11T10:39:14.798Z,61.70
2024-01-11T10:41:47.446Z,99.90
2024-01-11T10:44:21.292Z,1.00
2024-01-11T10:46:52.020Z,99.90
2024-01-11T10:49:21.689Z,1.00
2024-01-11T10:51:57.425Z,1.00
2024-01-11T10:54:26.290Z,99.90
2024-01-11T10:56:55.543Z,1.00
2024-01-11T10:59:26.673Z,1.00
2024-01-11T11:01:58.218Z,1.00
2024-01-11T11:04:27.742Z,1.00
2024-01-11T11:06:58.530Z,1.00
2024-01-11T11:09:29.078Z,99.90
2024-01-11T11:12:00.538Z,99.90
2024-01-11T11:14:31.020Z,99.90
2024-01-11T11:17:00.633Z,97.10
2024-01-11T11:19:31.446Z,1.00
2024-01-11T11:22:00.465Z,1.00
2024-01-11T11:24:29.332Z,1.00
2024-01-11T11:26:58.719Z,1.00
2024-01-11T11:29:27.402Z,1.00
2024-01-11T11:31:58.902Z,1.00
2024-01-11T11:34:42.559Z,1.00
2024-01-11T11:37:12.042Z,1.00
2024-01-11T11:39:41.431Z,1.00
2024-01-11T11:42:10.170Z,1.00
2024-01-11T11:44:49.672Z,1.00
2024-01-11T11:47:25.013Z,1.00
2024-01-11T11:50:11.029Z,1.00
2024-01-11T11:52:40.922Z,1.00
2024-01-11T11:55:10.615Z,1.00
2024-01-11T11:57:39.727Z,1.00
2024-01-11T12:00:09.929Z,1.00
2024-01-11T12:02:43.693Z,1.00
2024-01-11T12:05:12.477Z,1.00
2024-01-11T12:07:41.189Z,1.00
2024-01-11T12:10:10.400Z,1.00
2024-01-11T12:12:39.875Z,1.00
2024-01-11T12:15:10.092Z,1.00
2024-01-11T12:17:39.948Z,1.00
2024-01-11T12:20:11.949Z,1.00
2024-01-11T12:22:40.653Z,1.00
2024-01-11T12:25:10.045Z,1.00
2024-01-11T12:27:38.737Z,1.00
2024-01-11T12:30:09.169Z,1.00
2024-01-11T12:32:40.194Z,1.00
2024-01-11T12:35:11.454Z,1.00
2024-01-11T12:37:39.921Z,1.00
2024-01-11T12:40:11.660Z,1.00
2024-01-11T12:42:40.536Z,1.00
2024-01-11T12:45:09.694Z,1.00
2024-01-11T12:47:39.550Z,1.00
2024-01-11T12:50:11.315Z,1.00
2024-01-11T12:52:40.299Z,1.00
2024-01-11T12:55:10.716Z,1.00
2024-01-11T12:57:40.802Z,1.00
2024-01-11T13:00:13.104Z,1.00
2024-01-11T13:02:42.103Z,1.00
2024-01-11T13:05:12.295Z,1.00
2024-01-11T13:07:41.186Z,1.00
2024-01-11T13:10:10.645Z,1.00
2024-01-11T13:12:39.246Z,1.00
2024-01-11T13:15:08.770Z,99.90
2024-01-11T13:17:37.096Z,99.90
2024-01-11T13:20:06.406Z,99.90
2024-01-11T13:22:36.761Z,99.90
2024-01-11T13:25:05.887Z,99.90
2024-01-11T13:27:34.301Z,99.90
2024-01-11T13:30:03.461Z,99.90
2024-01-11T13:32:34.640Z,99.90
2024-01-11T13:35:03.562Z,99.90
2024-01-11T13:37:32.771Z,99.90
2024-01-11T13:40:03.557Z,99.90
2024-01-11T13:42:32.238Z,99.90
2024-01-11T13:45:02.809Z,99.90
2024-01-11T13:47:31.677Z,99.90
2024-01-11T13:50:00.440Z,99.90
2024-01-11T13:52:29.015Z,99.90
2024-01-11T13:54:57.793Z,99.90
2024-01-11T13:57:27.984Z,99.90
2024-01-11T13:59:59.071Z,99.90
2024-01-11T14:02:27.952Z,99.90
2024-01-11T14:04:56.410Z,99.90
2024-01-11T14:07:25.235Z,99.90
2024-01-11T14:09:54.435Z,99.90
2024-01-11T14:12:23.456Z,99.90
2024-01-11T14:14:53.799Z,99.90
2024-01-11T14:17:26.239Z,99.90
2024-01-11T14:19:54.731Z,99.90
2024-01-11T14:22:24.832Z,99.90
2024-01-11T14:24:55.768Z,99.90
2024-01-11T14:27:24.408Z,99.90
2024-01-11T14:29:54.831Z,99.90
2024-01-11T14:32:29.894Z,99.90
2024-01-11T14:35:06.553Z,99.90
2024-01-11T14:37:38.745Z,99.90
2024-01-11T14:40:10.754Z,99.90
2024-01-11T14:42:39.579Z,99.90
2024-01-11T14:45:11.094Z,99.90
2024-01-11T14:47:39.872Z,99.90
2024-01-11T14:50:11.744Z,99.90
2024-01-11T14:52:41.310Z,99.90
2024-01-11T14:55:11.576Z,99.90
2024-01-11T14:57:41.880Z,99.90
2024-01-11T15:00:16.106Z,99.90
2024-01-11T15:02:45.965Z,99.90
2024-01-11T15:05:14.674Z,99.90
2024-01-11T15:07:43.062Z,99.90
2024-01-11T15:10:12.219Z,99.90
2024-01-11T15:12:40.551Z,99.90
2024-01-11T15:15:12.574Z,99.90
2024-01-11T15:17:41.645Z,99.90
2024-01-11T15:20:11.712Z,99.90
2024-01-11T15:22:40.155Z,99.90
2024-01-11T15:25:09.071Z,99.90
2024-01-11T15:27:37.483Z,99.90
2024-01-11T15:30:07.121Z,99.90
2024-01-11T15:32:37.637Z,99.90
2024-01-11T15:35:09.171Z,99.90
2024-01-11T15:37:37.749Z,99.90
2024-01-11T15:40:07.516Z,99.90
2024-01-11T15:42:37.037Z,99.90
2024-01-11T15:45:08.827Z,99.90
2024-01-11T15:47:39.402Z,99.90
2024-01-11T15:50:12.008Z,99.90
2024-01-11T15:52:41.433Z,99.90
2024-01-11T15:55:11.650Z,99.90
2024-01-11T15:57:39.941Z,99.90
2024-01-11T16:00:13.049Z,99.90
2024-01-11T16:02:43.941Z,99.90
2024-01-11T16:05:12.927Z,99.90
2024-01-11T16:07:41.352Z,1.00
2024-01-11T16:10:10.958Z,1.00
2024-01-11T16:12:39.528Z,1.00
2024-01-11T16:15:08.411Z,1.00
2024-01-11T16:17:37.087Z,1.00
2024-01-11T16:20:09.674Z,1.00
2024-01-11T16:22:38.137Z,1.00
2024-01-11T16:25:07.670Z,1.00
2024-01-11T16:27:36.229Z,1.00
2024-01-11T16:30:05.295Z,1.00
2024-01-11T16:32:36.089Z,1.00
2024-01-11T16:35:06.642Z,1.00
2024-01-11T16:37:35.582Z,1.00
2024-01-11T16:40:04.840Z,1.00
2024-01-11T16:42:33.967Z,65.00
2024-01-11T16:45:02.968Z,68.50
2024-01-11T16:47:37.084Z,99.90
2024-01-11T16:50:09.958Z,99.90
2024-01-11T16:52:38.744Z,99.90
2024-01-11T16:55:07.437Z,1.00
2024-01-11T16:57:35.882Z,1.00
2024-01-11T17:00:05.166Z,1.00
2024-01-11T17:02:34.328Z,1.00
2024-01-11T17:05:02.939Z,1.00
2024-01-11T17:07:33.308Z,1.00
2024-01-11T17:10:01.742Z,1.00
2024-01-11T17:12:30.158Z,1.00
2024-01-11T17:15:00.234Z,1.00
2024-01-11T17:17:29.413Z,1.00
2024-01-11T17:19:57.911Z,1.00
2024-01-11T17:22:26.424Z,1.00
2024-01-11T17:24:58.903Z,1.00
2024-01-11T17:27:27.367Z,1.00
2024-01-11T17:29:56.122Z,1.00
2024-01-11T17:32:26.497Z,1.00
2024-01-11T17:34:56.712Z,1.00
2024-01-11T17:37:26.590Z,51.00
2024-01-11T17:39:57.296Z,99.90
2024-01-11T17:42:25.854Z,99.90
2024-01-11T17:44:55.874Z,99.90
2024-01-11T17:47:24.598Z,99.90
2024-01-11T17:49:53.824Z,99.90
2024-01-11T17:52:22.588Z,99.90
2024-01-11T17:54:51.170Z,99.90
2024-01-11T17:57:23.950Z,99.90
2024-01-11T17:59:53.147Z,99.90
2024-01-11T18:02:21.655Z,99.90
2024-01-11T18:04:50.848Z,99.90
2024-01-11T18:07:20.051Z,99.90
2024-01-11T18:09:48.705Z,1.00
2024-01-11T18:12:17.261Z,1.00
2024-01-11T18:14:47.385Z,1.00
2024-01-11T18:17:16.080Z,1.00
2024-01-11T18:19:44.834Z,1.00
2024-01-11T18:22:13.439Z,1.00
2024-01-11T18:24:42.089Z,1.00
2024-01-11T18:27:11.405Z,1.00
2024-01-11T18:29:40.045Z,1.00
2024-01-11T18:32:10.559Z,1.00
2024-01-11T18:34:38.998Z,1.00
2024-01-11T18:37:07.980Z,1.00
2024-01-11T18:39:36.858Z,1.00
2024-01-11T18:42:07.901Z,1.00
2024-01-11T18:44:38.437Z,1.00
2024-01-11T18:47:07.468Z,1.00
2024-01-11T18:49:38.020Z,99.90
2024-01-11T18:52:07.767Z,99.90
2024-01-11T18:54:36.384Z,99.90
2024-01-11T18:57:05.818Z,99.90
2024-01-11T18:59:34.249Z,99.90
2024-01-11T19:02:04.143Z,99.90
2024-01-11T19:04:32.439Z,1.00
2024-01-11T19:07:07.257Z,1.00
2024-01-11T19:09:35.665Z,1.00
2024-01-11T19:12:04.882Z,99.90
2024-01-11T19:14:34.232Z,1.00
2024-01-11T19:17:03.940Z,1.00
2024-01-11T19:19:32.926Z,1.00
2024-01-11T19:22:02.984Z,1.00
2024-01-11T19:24:31.431Z,99.90
2024-01-11T19:26:59.829Z,99.90
2024-01-11T19:29:29.594Z,1.00
2024-01-11T19:31:58.612Z,1.00
2024-01-11T19:34:27.012Z,99.90
2024-01-11T19:36:56.225Z,1.00
2024-01-11T19:39:27.106Z,1.00
2024-01-11T19:41:55.677Z,99.90
2024-01-11T19:44:28.487Z,99.90
2024-01-11T19:46:57.206Z,99.90
2024-01-11T19:49:25.621Z,1.00
2024-01-11T19:51:54.109Z,1.00
2024-01-11T19:54:22.282Z,1.00
2024-01-11T19:56:52.247Z,1.00
2024-01-11T19:59:21.277Z,99.90
2024-01-11T20:01:51.939Z,51.50
2024-01-11T20:04:21.713Z,1.00
2024-01-11T20:06:50.841Z,1.00
2024-01-11T20:09:19.305Z,99.90
2024-01-11T20:11:47.701Z,99.90
2024-01-11T20:14:17.968Z,99.90
2024-01-11T20:16:46.394Z,62.90
2024-01-11T20:19:15.255Z,1.00
2024-01-11T20:21:43.962Z,99.90
2024-01-11T20:24:12.782Z,99.90
2024-01-11T20:26:41.611Z,99.90
2024-01-11T20:29:10.368Z,99.90
2024-01-11T20:31:40.893Z,99.90
2024-01-11T20:34:12.699Z,99.90
2024-01-11T20:36:41.496Z,1.00
2024-01-11T20:39:11.570Z,99.90
2024-01-11T20:41:44.199Z,12.90
2024-01-11T20:44:13.172Z,1.00
2024-01-11T20:46:44.283Z,1.00
2024-01-11T20:49:12.952Z,1.00
2024-01-11T20:51:43.935Z,1.00
2024-01-11T20:54:12.477Z,1.00
2024-01-11T20:56:45.321Z,99.90
2024-01-11T20:59:14.288Z,1.00
2024-01-11T21:01:44.411Z,37.40
2024-01-11T21:04:12.998Z,1.00
2024-01-11T21:06:41.389Z,99.90
2024-01-11T21:09:11.918Z,1.00
2024-01-11T21:11:41.746Z,1.00
2024-01-11T21:14:11.468Z,99.90
2024-01-11T21:16:40.527Z,1.00
2024-01-11T21:19:11.628Z,1.00
2024-01-11T21:21:42.340Z,1.00
2024-01-11T21:24:10.758Z,1.00
2024-01-11T21:26:39.774Z,1.00
2024-01-11T21:29:08.239Z,1.00
2024-01-11T21:31:37.129Z,1.00
2024-01-11T21:34:05.798Z,1.00
2024-01-11T21:36:37.458Z,1.00
2024-01-11T21:39:06.464Z,1.00
2024-01-11T21:41:35.000Z,1.00
2024-01-11T21:44:03.774Z,1.00
2024-01-11T21:46:32.579Z,1.00
2024-01-11T21:49:04.806Z,64.90
2024-01-11T21:51:33.668Z,99.90
2024-01-11T21:54:04.290Z,1.00
2024-01-11T21:56:33.177Z,1.00
2024-01-11T21:59:01.617Z,73.90
2024-01-11T22:01:30.910Z,1.00
2024-01-11T22:04:01.118Z,99.90
2024-01-11T22:06:33.117Z,1.00
2024-01-11T22:09:01.726Z,1.00
2024-01-11T22:11:31.969Z,51.00
2024-01-11T22:14:00.583Z,77.10
2024-01-11T22:16:30.606Z,99.90
2024-01-11T22:19:00.470Z,99.90
2024-01-11T22:21:29.722Z,1.00
2024-01-11T22:23:58.821Z,1.00
2024-01-11T22:26:30.145Z,99.90
2024-01-11T22:29:01.758Z,99.90
2024-01-11T22:31:34.360Z,99.90
2024-01-11T22:34:03.388Z,99.90
2024-01-11T22:36:31.799Z,99.90
2024-01-11T22:39:00.110Z,99.90
2024-01-11T22:41:30.970Z,99.90
2024-01-11T22:44:01.761Z,99.90
2024-01-11T22:46:31.561Z,99.90
2024-01-11T22:49:04.271Z,99.90
2024-01-11T22:51:33.406Z,1.00
2024-01-11T22:54:02.076Z,1.00
2024-01-11T22:56:36.450Z,1.00
2024-01-11T22:59:06.706Z,1.00
2024-01-11T23:01:35.473Z,1.00
2024-01-11T23:04:04.125Z,1.00
2024-01-11T23:06:32.771Z,1.00
2024-01-11T23:09:01.403Z,1.00
2024-01-11T23:11:30.201Z,1.00
2024-01-11T23:13:59.252Z,1.00
2024-01-11T23:16:29.997Z,1.00
2024-01-11T23:18:59.971Z,1.00
2024-01-11T23:21:29.265Z,1.00
2024-01-11T23:23:59.341Z,1.00
2024-01-11T23:26:27.982Z,1.00
2024-01-11T23:28:56.516Z,36.10
2024-01-11T23:31:25.371Z,89.40
2024-01-11T23:33:54.694Z,99.90
2024-01-11T23:36:23.680Z,99.90
2024-01-11T23:38:53.182Z,99.90
2024-01-11T23:41:21.785Z,99.90
2024-01-11T23:43:50.673Z,99.90
2024-01-11T23:46:18.912Z,99.90
2024-01-11T23:48:47.960Z,99.90
2024-01-11T23:51:18.021Z,99.90
2024-01-11T23:53:46.634Z,99.90
2024-01-11T23:56:14.965Z,99.90
2024-01-11T23:58:43.308Z,99.90
